KR-0398 weather

Hanjin SM Co. Ltd Heliport
Busan, Busan Gwang'yeogsi, South Korea

Public forecast

Using degrees Celsius for public forecast. Weather courtesy of forecast.io.

METAR (pilot weather report)

Closest report is Gimhae International Airport, 6.5 nm (12.0 km) NW. Retrieved 2019/09/16 07:00 UTC (6 minutes ago):

RKPK 160700Z 01013KT 9999 FEW050 FEW200 27/16 Q1008

TAF (pilot weather forecast)

Closest forecast is Gimhae International Airport, 6.5 nm (12.0 km) NW. Retrieved 2019/09/16 06:00 UTC (1 hour ago):

TAF RKPK 160500Z 1606/1712 03010KT 9999 SCT030 TN19/1621Z TX28/1706Z BECMG 1611/1612 33006KT BECMG 1702/1703 05010KT BECMG 1709/1710 33006KT